Oelwein, IA

11:00 PM CDT on August 25, 2019 (GMT -0500)
Oelwein Municipal

Weather History for KOLZ - June, 2019

Change the Weather History Date:

Saturday, June 8, 2019

  Actual Average Record
Temperature  
Mean Temperature 72 °F -  
Max Temperature 84 °F 78 °F 97 °F (1985)
Min Temperature 60 °F 55 °F 43 °F (1978)
Cooling Degree Days 7    
Growing Degree Days 22 (Base 50)    
Moisture  
Dew Point 55 °F    
Average Humidity 57    
Maximum Humidity 94    
Minimum Humidity 26    
Precipitation  
Precipitation 0.00 in - - ()
Sea Level Pressure  
Sea Level Pressure 29.98 in    
Wind  
Wind Speed 11 mph (ESE)    
Max Wind Speed 20 mph    
Max Gust Speed 23 mph    
Visibility 10 miles    
Events      
Averages and records for this station are not official NWS values.
T = Trace of Precipitation, MM = Missing Value Source: NWS Daily Summary

Daily Weather History Graph

Daily Weather History Graph

Search for Another Location

Airport or City:

Astronomy

Jun. 08, 2019 Rise Set
Actual Time 5:30 AM CDT 8:44 PM CDT
Civil Twilight 4:55 AM CDT 9:18 PM CDT
Nautical Twilight 4:10 AM CDT 10:03 PM CDT
Astronomical Twilight 3:16 AM CDT 10:58 PM CDT
Moon 11:01 AM CDT (6/8) 12:43 AM CDT (6/8)
Length of Visible Light 16h 23m
Length of Day
15h 13m
Waxing Crescent, 33% of the Moon is Illuminated
Jun 8
Waxing Crescent
Jun 10
First Quarter
Jun 17
Full
Jun 25
Last Quarter
Jul 2
New

Hourly Weather History & Observations

Time (CDT) Temp. Heat Index Dew Point Humidity Pressure Visibility Wind Dir Wind Speed Gust Speed Precip Events Conditions
12:15 AM 68.0 °F - 60.8 °F 78% 29.98 in 10.0 mi ESE 9.2 mph - N/A   Clear
12:35 AM 66.2 °F - 60.8 °F 83% 29.97 in 10.0 mi ESE 9.2 mph - N/A   Clear
12:55 AM 66.2 °F - 60.8 °F 83% 29.97 in 10.0 mi ESE 9.2 mph - N/A   Clear
1:15 AM 66.2 °F - 59.0 °F 78% 29.97 in 10.0 mi ESE 10.4 mph - N/A   Clear
1:35 AM 66.2 °F - 59.0 °F 78% 29.97 in 10.0 mi ESE 9.2 mph - N/A   Clear
1:55 AM 66.2 °F - 59.0 °F 78% 29.97 in 10.0 mi ESE 9.2 mph - N/A   Clear
2:15 AM 64.4 °F - 59.0 °F 83% 29.97 in 10.0 mi ESE 8.1 mph - N/A   Clear
2:35 AM 64.4 °F - 59.0 °F 83% 29.97 in 10.0 mi ESE 6.9 mph - N/A   Clear
2:55 AM 64.4 °F - 59.0 °F 83% 29.98 in 10.0 mi ESE 8.1 mph - N/A   Clear
3:15 AM 64.4 °F - 59.0 °F 83% 29.98 in 10.0 mi ESE 6.9 mph - N/A   Clear
3:35 AM 64.4 °F - 59.0 °F 83% 29.98 in 10.0 mi ESE 6.9 mph - N/A   Clear
3:55 AM 64.4 °F - 59.0 °F 83% 29.99 in 10.0 mi ESE 6.9 mph - N/A   Clear
4:15 AM 62.6 °F - 59.0 °F 88% 29.99 in 10.0 mi ESE 6.9 mph - N/A   Clear
4:35 AM 62.6 °F - 59.0 °F 88% 29.99 in 10.0 mi ESE 6.9 mph - N/A   Clear
4:55 AM 62.6 °F - 59.0 °F 88% 30.00 in 10.0 mi ESE 6.9 mph - N/A   Clear
5:15 AM 62.6 °F - 59.0 °F 88% 30.00 in 10.0 mi ESE 6.9 mph - N/A   Clear
5:35 AM 60.8 °F - 59.0 °F 94% 30.01 in 10.0 mi ESE 8.1 mph - N/A   Clear
5:55 AM 62.6 °F - 59.0 °F 88% 30.01 in 10.0 mi East 8.1 mph - N/A   Clear
6:15 AM 62.6 °F - 59.0 °F 88% 30.02 in 10.0 mi East 8.1 mph - N/A   Clear
6:35 AM 64.4 °F - 59.0 °F 83% 30.02 in 10.0 mi ESE 9.2 mph - N/A   Clear
6:55 AM 64.4 °F - 59.0 °F 83% 30.02 in 10.0 mi ESE 10.4 mph - N/A   Clear
7:15 AM 66.2 °F - 59.0 °F 78% 30.03 in 10.0 mi ESE 9.2 mph - N/A   Clear
7:35 AM 66.2 °F - 59.0 °F 78% 30.02 in 10.0 mi ESE 11.5 mph - N/A   Clear
7:55 AM 68.0 °F - 59.0 °F 73% 30.02 in 10.0 mi ESE 11.5 mph - N/A   Clear
8:15 AM 69.8 °F - 57.2 °F 64% 30.02 in 10.0 mi SE 12.7 mph - N/A   Clear
8:35 AM 71.6 °F - 55.4 °F 57% 30.03 in 10.0 mi SE 12.7 mph - N/A   Clear
8:55 AM 73.4 °F - 55.4 °F 53% 30.02 in 10.0 mi ESE 12.7 mph - N/A   Clear
9:15 AM 73.4 °F - 53.6 °F 50% 30.02 in 10.0 mi SE 15.0 mph - N/A   Clear
9:35 AM 75.2 °F - 53.6 °F 47% 30.01 in 10.0 mi SE 13.8 mph 20.7 mph N/A   Clear
9:55 AM 75.2 °F - 51.8 °F 44% 30.02 in 10.0 mi SE 17.3 mph - N/A   Clear
10:15 AM 77.0 °F - 53.6 °F 44% 30.01 in 10.0 mi ESE 18.4 mph - N/A   Clear
10:35 AM 77.0 °F - 53.6 °F 44% 30.01 in 10.0 mi SE 17.3 mph - N/A   Clear
10:55 AM 77.0 °F - 53.6 °F 44% 30.01 in 10.0 mi ESE 16.1 mph 21.9 mph N/A   Clear
11:15 AM 78.8 °F - 53.6 °F 42% 30.00 in 10.0 mi East 19.6 mph - N/A   Clear
11:35 AM 78.8 °F - 55.4 °F 44% 30.00 in 10.0 mi ESE 12.7 mph 21.9 mph N/A   Clear
11:55 AM 78.8 °F - 51.8 °F 39% 30.00 in 10.0 mi East 13.8 mph 20.7 mph N/A   Clear
12:15 PM 78.8 °F - 51.8 °F 39% 30.00 in 10.0 mi ESE 12.7 mph 18.4 mph N/A   Clear
12:35 PM 80.6 °F - 51.8 °F 37% 29.99 in 10.0 mi ESE 13.8 mph 21.9 mph N/A   Clear
12:55 PM 80.6 °F - 48.2 °F 32% 29.98 in 10.0 mi ESE 17.3 mph 23.0 mph N/A   Clear
1:15 PM 82.4 °F - 48.2 °F 30% 29.97 in 10.0 mi East 13.8 mph - N/A   Clear
1:35 PM 80.6 °F - 48.2 °F 32% 29.97 in 10.0 mi ESE 15.0 mph 21.9 mph N/A   Clear
1:55 PM 82.4 °F - 46.4 °F 28% 29.97 in 10.0 mi East 16.1 mph - N/A   Clear
2:15 PM 82.4 °F - 46.4 °F 28% 29.96 in 10.0 mi ESE 13.8 mph 23.0 mph N/A   Clear
2:35 PM 82.4 °F - 44.6 °F 26% 29.96 in 10.0 mi ESE 15.0 mph 23.0 mph N/A   Clear
2:55 PM 82.4 °F - 46.4 °F 28% 29.96 in 10.0 mi ESE 13.8 mph 20.7 mph N/A   Clear
3:15 PM 84.2 °F - 48.2 °F 29% 29.96 in 10.0 mi East 11.5 mph 19.6 mph N/A   Clear
3:35 PM 82.4 °F - 48.2 °F 30% 29.95 in 10.0 mi ESE 15.0 mph - N/A   Clear
3:55 PM 84.2 °F - 48.2 °F 29% 29.94 in 10.0 mi ESE 15.0 mph 21.9 mph N/A   Clear
4:15 PM 84.2 °F - 48.2 °F 29% 29.94 in 10.0 mi SE 17.3 mph 23.0 mph N/A   Clear
4:35 PM 84.2 °F - 50.0 °F 30% 29.93 in 10.0 mi ESE 12.7 mph 20.7 mph N/A   Clear
4:55 PM 84.2 °F - 50.0 °F 30% 29.94 in 10.0 mi East 13.8 mph - N/A   Clear
5:15 PM 84.2 °F - 51.8 °F 33% 29.93 in 10.0 mi ESE 11.5 mph 18.4 mph N/A   Clear
5:35 PM 84.2 °F - 51.8 °F 33% 29.93 in 10.0 mi ESE 12.7 mph 19.6 mph N/A   Clear
5:55 PM 84.2 °F - 51.8 °F 33% 29.93 in 10.0 mi ESE 12.7 mph 19.6 mph N/A   Clear
6:15 PM 82.4 °F 81.4 °F 53.6 °F 37% 29.93 in 10.0 mi SE 13.8 mph - N/A   Clear
6:35 PM 82.4 °F 81.4 °F 53.6 °F 37% 29.93 in 10.0 mi ESE 11.5 mph 18.4 mph N/A   Clear
6:55 PM 82.4 °F 81.4 °F 53.6 °F 37% 29.93 in 10.0 mi East 12.7 mph - N/A   Clear
7:15 PM 80.6 °F 80.3 °F 53.6 °F 39% 29.93 in 10.0 mi ESE 11.5 mph - N/A   Clear
7:35 PM 80.6 °F 80.3 °F 53.6 °F 39% 29.93 in 10.0 mi SE 11.5 mph - N/A   Clear
7:55 PM 78.8 °F - 53.6 °F 42% 29.94 in 10.0 mi ESE 13.8 mph - N/A   Clear
8:15 PM 77.0 °F - 53.6 °F 44% 29.94 in 10.0 mi ESE 8.1 mph - N/A   Clear
8:35 PM 75.2 °F - 53.6 °F 47% 29.94 in 10.0 mi ESE 8.1 mph - N/A   Clear
8:55 PM 73.4 °F - 55.4 °F 53% 29.94 in 10.0 mi East 8.1 mph - N/A   Clear
9:15 PM 73.4 °F - 57.2 °F 57% 29.94 in 10.0 mi East 6.9 mph - N/A   Clear
9:35 PM 71.6 °F - 57.2 °F 60% 29.95 in 10.0 mi East 8.1 mph - N/A   Clear
9:55 PM 69.8 °F - 57.2 °F 64% 29.96 in 10.0 mi ENE 6.9 mph - N/A   Clear
10:15 PM 71.6 °F - 57.2 °F 60% 29.96 in 10.0 mi East 6.9 mph - N/A   Clear
10:35 PM 71.6 °F - 59.0 °F 64% 29.97 in 10.0 mi ESE 13.8 mph - N/A   Clear
10:55 PM 69.8 °F - 60.8 °F 73% 29.98 in 10.0 mi ESE 8.1 mph - N/A   Clear
11:15 PM 68.0 °F - 62.6 °F 83% 29.97 in 10.0 mi ESE 9.2 mph - N/A   Clear
11:35 PM 68.0 °F - 62.6 °F 83% 29.98 in 10.0 mi ESE 9.2 mph - N/A   Clear
11:55 PM 68.0 °F - 62.6 °F 83% 29.98 in 10.0 mi SE 9.2 mph - N/A   Clear